SKW5595 KLIT-KIAH
Flight info
| Callsign | SKW5595 |
|---|---|
| Flight time | 1h 14m |
| Altitude | 34000 |
| Route | LITTR Q33 SWEUP GESNR2 |
| Aircraft | CRJ7/M-SDFGIRWY/S |
Departure
| Time | 2026-05-08 19:17 |
|---|---|
| Airport | Bill & Hillary Clinton National Airport/Adams Field (KLIT) |
Arrival
| Time | 2026-05-08 20:32 |
|---|---|
| Airport | George Bush Intercontinental Airport (KIAH) |
| Time | Latitude | Longitude | Altitude | Speed | Heading |
|---|---|---|---|---|---|
| 2026-05-08 18:26 | 34.72944 | -92.22084 | 266 ft | 0 kts | 112° |
| 2026-05-08 18:32 | 34.72944 | -92.22085 | 266 ft | 0 kts | 112° |
| 2026-05-08 18:39 | 34.72944 | -92.22086 | 266 ft | 0 kts | 112° |
| 2026-05-08 18:46 | 34.72944 | -92.22087 | 266 ft | 0 kts | 112° |
| 2026-05-08 18:47 | 34.72945 | -92.22087 | 266 ft | 0 kts | 112° |
| 2026-05-08 18:54 | 34.72945 | -92.22088 | 266 ft | 0 kts | 112° |
| 2026-05-08 19:02 | 34.72945 | -92.22089 | 284 ft | 0 kts | 112° |
| 2026-05-08 19:08 | 34.72952 | -92.22108 | 266 ft | 3 kts | 112° |
| 2026-05-08 19:09 | 34.72959 | -92.22129 | 266 ft | 3 kts | 112° |
| 2026-05-08 19:09 | 34.72965 | -92.22149 | 266 ft | 3 kts | 112° |
| 2026-05-08 19:09 | 34.72972 | -92.22169 | 266 ft | 3 kts | 112° |
| 2026-05-08 19:09 | 34.72979 | -92.22188 | 267 ft | 0 kts | 112° |
| 2026-05-08 19:12 | 34.72978 | -92.22182 | 267 ft | 1 kts | 76° |
| 2026-05-08 19:13 | 34.72982 | -92.22175 | 267 ft | 2 kts | 44° |
| 2026-05-08 19:13 | 34.73012 | -92.22153 | 267 ft | 9 kts | 24° |
| 2026-05-08 19:13 | 34.73063 | -92.22168 | 267 ft | 8 kts | 304° |
| 2026-05-08 19:13 | 34.73089 | -92.22235 | 267 ft | 10 kts | 291° |
| 2026-05-08 19:14 | 34.73114 | -92.22315 | 267 ft | 11 kts | 291° |
| 2026-05-08 19:14 | 34.73145 | -92.22402 | 267 ft | 12 kts | 313° |
| 2026-05-08 19:14 | 34.73211 | -92.22384 | 267 ft | 11 kts | 46° |
| 2026-05-08 19:14 | 34.73268 | -92.22312 | 266 ft | 13 kts | 46° |
| 2026-05-08 19:15 | 34.73334 | -92.22227 | 265 ft | 15 kts | 47° |
| 2026-05-08 19:15 | 34.73406 | -92.22136 | 265 ft | 15 kts | 46° |
| 2026-05-08 19:15 | 34.73485 | -92.22035 | 262 ft | 18 kts | 46° |
| 2026-05-08 19:15 | 34.73572 | -92.21923 | 262 ft | 18 kts | 46° |
| 2026-05-08 19:16 | 34.73659 | -92.21811 | 262 ft | 19 kts | 46° |
| 2026-05-08 19:16 | 34.73736 | -92.21746 | 262 ft | 11 kts | 352° |
| 2026-05-08 19:16 | 34.73794 | -92.21808 | 260 ft | 13 kts | 279° |
| 2026-05-08 19:16 | 34.73743 | -92.21900 | 259 ft | 14 kts | 226° |
| 2026-05-08 19:17 | 34.73602 | -92.22078 | 258 ft | 58 kts | 225° |
| 2026-05-08 19:17 | 34.73179 | -92.22620 | 261 ft | 116 kts | 226° |
| 2026-05-08 19:17 | 34.72563 | -92.23415 | 451 ft | 130 kts | 223° |
| 2026-05-08 19:17 | 34.71961 | -92.24226 | 896 ft | 128 kts | 224° |
| 2026-05-08 19:18 | 34.71370 | -92.25055 | 1352 ft | 129 kts | 224° |
| 2026-05-08 19:18 | 34.70771 | -92.25892 | 1685 ft | 131 kts | 224° |
| 2026-05-08 19:18 | 34.70132 | -92.26757 | 1974 ft | 148 kts | 225° |
| 2026-05-08 19:18 | 34.69315 | -92.27576 | 2335 ft | 163 kts | 200° |
| 2026-05-08 19:19 | 34.68154 | -92.27757 | 2786 ft | 176 kts | 178° |
| 2026-05-08 19:19 | 34.66852 | -92.27717 | 3329 ft | 194 kts | 179° |
| 2026-05-08 19:19 | 34.65508 | -92.27695 | 4175 ft | 196 kts | 180° |
| 2026-05-08 19:19 | 34.64074 | -92.27677 | 4737 ft | 215 kts | 181° |
| 2026-05-08 19:20 | 34.62522 | -92.27650 | 5309 ft | 230 kts | 182° |
| 2026-05-08 19:20 | 34.61999 | -92.27638 | 5528 ft | 233 kts | 182° |
| 2026-05-08 19:20 | 34.59208 | -92.27584 | 6794 ft | 244 kts | 184° |
| 2026-05-08 19:20 | 34.57525 | -92.27562 | 7547 ft | 247 kts | 184° |
| 2026-05-08 19:21 | 34.55792 | -92.27539 | 8308 ft | 250 kts | 185° |
| 2026-05-08 19:21 | 34.54033 | -92.27518 | 8954 ft | 261 kts | 185° |
| 2026-05-08 19:21 | 34.52157 | -92.27501 | 9374 ft | 279 kts | 185° |
| 2026-05-08 19:21 | 34.50164 | -92.27492 | 9951 ft | 290 kts | 185° |
| 2026-05-08 19:22 | 34.48133 | -92.27477 | 10706 ft | 293 kts | 185° |
| 2026-05-08 19:22 | 34.46775 | -92.27458 | 11197 ft | 295 kts | 185° |
| 2026-05-08 19:22 | 34.44710 | -92.27425 | 11954 ft | 298 kts | 186° |
| 2026-05-08 19:22 | 34.42628 | -92.27390 | 12685 ft | 301 kts | 186° |
| 2026-05-08 19:23 | 34.40525 | -92.27356 | 13437 ft | 304 kts | 186° |
| 2026-05-08 19:23 | 34.38399 | -92.27326 | 14125 ft | 307 kts | 187° |
| 2026-05-08 19:23 | 34.36252 | -92.27296 | 14788 ft | 310 kts | 187° |
| 2026-05-08 19:23 | 34.34085 | -92.27269 | 15458 ft | 313 kts | 188° |
| 2026-05-08 19:24 | 34.31891 | -92.27240 | 16105 ft | 316 kts | 188° |
| 2026-05-08 19:24 | 34.29681 | -92.27210 | 16721 ft | 320 kts | 188° |
| 2026-05-08 19:24 | 34.27440 | -92.27182 | 17325 ft | 323 kts | 188° |
| 2026-05-08 19:24 | 34.25180 | -92.27153 | 17931 ft | 326 kts | 189° |
| 2026-05-08 19:25 | 34.22930 | -92.27123 | 18489 ft | 329 kts | 189° |
| 2026-05-08 19:25 | 34.20641 | -92.27093 | 19054 ft | 330 kts | 189° |
| 2026-05-08 19:25 | 34.18374 | -92.27223 | 19637 ft | 323 kts | 196° |
| 2026-05-08 19:25 | 34.16157 | -92.27613 | 20206 ft | 320 kts | 199° |
| 2026-05-08 19:26 | 34.13962 | -92.28086 | 20772 ft | 321 kts | 200° |
| 2026-05-08 19:26 | 34.11757 | -92.28561 | 21318 ft | 321 kts | 199° |
| 2026-05-08 19:26 | 34.09546 | -92.29019 | 21829 ft | 323 kts | 199° |
| 2026-05-08 19:26 | 34.07315 | -92.29445 | 22343 ft | 324 kts | 198° |
| 2026-05-08 19:27 | 34.05087 | -92.29861 | 22819 ft | 324 kts | 199° |
| 2026-05-08 19:27 | 34.02879 | -92.30272 | 23300 ft | 325 kts | 199° |
| 2026-05-08 19:27 | 34.00611 | -92.30693 | 23756 ft | 326 kts | 199° |
| 2026-05-08 19:27 | 33.98394 | -92.31102 | 24147 ft | 326 kts | 199° |
| 2026-05-08 19:28 | 33.96149 | -92.31516 | 24530 ft | 327 kts | 199° |
| 2026-05-08 19:28 | 33.93899 | -92.31934 | 24909 ft | 327 kts | 199° |
| 2026-05-08 19:28 | 33.91645 | -92.32351 | 25277 ft | 328 kts | 199° |
| 2026-05-08 19:28 | 33.89382 | -92.32771 | 25632 ft | 329 kts | 199° |
| 2026-05-08 19:29 | 33.87116 | -92.33190 | 25982 ft | 330 kts | 199° |
| 2026-05-08 19:29 | 33.84846 | -92.33608 | 26328 ft | 330 kts | 199° |
| 2026-05-08 19:29 | 33.82569 | -92.34031 | 26656 ft | 331 kts | 199° |
| 2026-05-08 19:29 | 33.80287 | -92.34451 | 26981 ft | 332 kts | 199° |
| 2026-05-08 19:30 | 33.77996 | -92.34874 | 27298 ft | 333 kts | 199° |
| 2026-05-08 19:30 | 33.75703 | -92.35299 | 27618 ft | 334 kts | 199° |
| 2026-05-08 19:30 | 33.73435 | -92.35718 | 27922 ft | 335 kts | 199° |
| 2026-05-08 19:30 | 33.71124 | -92.36145 | 28217 ft | 336 kts | 199° |
| 2026-05-08 19:31 | 33.68812 | -92.36572 | 28518 ft | 336 kts | 199° |
| 2026-05-08 19:31 | 33.66496 | -92.36999 | 28821 ft | 337 kts | 199° |
| 2026-05-08 19:31 | 33.64172 | -92.37427 | 29103 ft | 338 kts | 199° |
| 2026-05-08 19:31 | 33.61842 | -92.37856 | 29397 ft | 339 kts | 199° |
| 2026-05-08 19:32 | 33.59504 | -92.38286 | 29675 ft | 340 kts | 199° |
| 2026-05-08 19:32 | 33.57163 | -92.38716 | 29949 ft | 341 kts | 199° |
| 2026-05-08 19:32 | 33.54813 | -92.39149 | 30182 ft | 342 kts | 199° |
| 2026-05-08 19:32 | 33.52460 | -92.39583 | 30393 ft | 343 kts | 199° |
| 2026-05-08 19:33 | 33.50099 | -92.40017 | 30600 ft | 344 kts | 199° |
| 2026-05-08 19:33 | 33.47729 | -92.40453 | 30800 ft | 345 kts | 199° |
| 2026-05-08 19:33 | 33.45380 | -92.40884 | 30993 ft | 346 kts | 199° |
| 2026-05-08 19:33 | 33.42999 | -92.41321 | 31184 ft | 347 kts | 199° |
| 2026-05-08 19:34 | 33.40605 | -92.41761 | 31375 ft | 348 kts | 199° |
| 2026-05-08 19:34 | 33.38212 | -92.42192 | 31551 ft | 349 kts | 199° |
| 2026-05-08 19:34 | 33.35813 | -92.42632 | 31767 ft | 348 kts | 200° |
| 2026-05-08 19:34 | 33.33421 | -92.43074 | 32005 ft | 347 kts | 200° |
| 2026-05-08 19:35 | 33.31039 | -92.43514 | 32237 ft | 346 kts | 200° |
| 2026-05-08 19:35 | 33.28659 | -92.43952 | 32450 ft | 345 kts | 200° |
| 2026-05-08 19:35 | 33.26287 | -92.44385 | 32669 ft | 345 kts | 200° |
| 2026-05-08 19:35 | 33.23918 | -92.44818 | 32824 ft | 346 kts | 200° |
| 2026-05-08 19:36 | 33.21524 | -92.45258 | 32896 ft | 349 kts | 200° |
| 2026-05-08 19:36 | 33.19123 | -92.45698 | 33078 ft | 348 kts | 200° |
| 2026-05-08 19:36 | 33.16729 | -92.46134 | 33290 ft | 348 kts | 200° |
| 2026-05-08 19:36 | 33.14336 | -92.46571 | 33491 ft | 347 kts | 200° |
| 2026-05-08 19:37 | 33.11954 | -92.47005 | 33700 ft | 346 kts | 200° |
| 2026-05-08 19:37 | 33.09603 | -92.47434 | 33848 ft | 347 kts | 200° |
| 2026-05-08 19:37 | 33.07207 | -92.47872 | 33928 ft | 349 kts | 200° |
| 2026-05-08 19:38 | 33.02366 | -92.48758 | 33981 ft | 356 kts | 199° |
| 2026-05-08 19:38 | 32.97421 | -92.49660 | 33997 ft | 362 kts | 199° |
| 2026-05-08 19:39 | 32.92417 | -92.50572 | 33992 ft | 365 kts | 199° |
| 2026-05-08 19:39 | 32.87362 | -92.51492 | 33994 ft | 369 kts | 199° |
| 2026-05-08 19:40 | 32.82266 | -92.52419 | 33987 ft | 372 kts | 199° |
| 2026-05-08 19:40 | 32.77132 | -92.53352 | 33985 ft | 374 kts | 199° |
| 2026-05-08 19:41 | 32.72005 | -92.54283 | 33982 ft | 376 kts | 198° |
| 2026-05-08 19:41 | 32.66817 | -92.55220 | 33975 ft | 378 kts | 198° |
| 2026-05-08 19:42 | 32.61606 | -92.56165 | 33972 ft | 379 kts | 198° |
| 2026-05-08 19:42 | 32.56380 | -92.57114 | 33964 ft | 381 kts | 198° |
| 2026-05-08 19:43 | 32.51130 | -92.58062 | 33962 ft | 382 kts | 198° |
| 2026-05-08 19:43 | 32.45861 | -92.59014 | 33965 ft | 384 kts | 198° |
| 2026-05-08 19:44 | 32.40575 | -92.59968 | 33971 ft | 385 kts | 198° |
| 2026-05-08 19:44 | 32.35279 | -92.60922 | 33975 ft | 385 kts | 198° |
| 2026-05-08 19:45 | 32.29968 | -92.61877 | 33979 ft | 386 kts | 198° |
| 2026-05-08 19:45 | 32.24683 | -92.62826 | 33984 ft | 387 kts | 197° |
| 2026-05-08 19:46 | 32.19353 | -92.63784 | 33992 ft | 387 kts | 197° |
| 2026-05-08 19:46 | 32.11344 | -92.65220 | 33993 ft | 388 kts | 197° |
| 2026-05-08 19:47 | 32.05989 | -92.66178 | 33994 ft | 389 kts | 198° |
| 2026-05-08 19:47 | 32.03420 | -92.66993 | 33998 ft | 375 kts | 211° |
| 2026-05-08 19:47 | 32.01148 | -92.68453 | 34001 ft | 371 kts | 216° |
| 2026-05-08 19:48 | 31.96709 | -92.71565 | 33993 ft | 372 kts | 217° |
| 2026-05-08 19:48 | 31.92349 | -92.74800 | 33991 ft | 373 kts | 218° |
| 2026-05-08 19:49 | 31.88492 | -92.78777 | 33993 ft | 368 kts | 232° |
| 2026-05-08 19:49 | 31.85212 | -92.83433 | 33989 ft | 370 kts | 232° |
| 2026-05-08 19:50 | 31.81763 | -92.87964 | 33979 ft | 373 kts | 230° |
| 2026-05-08 19:50 | 31.78262 | -92.92480 | 33974 ft | 375 kts | 230° |
| 2026-05-08 19:51 | 31.74747 | -92.97024 | 33968 ft | 376 kts | 230° |
| 2026-05-08 19:51 | 31.71237 | -93.01558 | 33966 ft | 378 kts | 230° |
| 2026-05-08 19:52 | 31.67690 | -93.06132 | 33965 ft | 379 kts | 230° |
| 2026-05-08 19:52 | 31.64134 | -93.10710 | 33965 ft | 380 kts | 230° |
| 2026-05-08 19:53 | 31.60546 | -93.15280 | 33964 ft | 381 kts | 229° |
| 2026-05-08 19:53 | 31.56843 | -93.19756 | 33982 ft | 383 kts | 229° |
| 2026-05-08 19:54 | 31.53091 | -93.24211 | 33965 ft | 384 kts | 229° |
| 2026-05-08 19:54 | 31.49448 | -93.28786 | 33959 ft | 383 kts | 232° |
| 2026-05-08 19:55 | 31.45974 | -93.33491 | 33921 ft | 385 kts | 231° |
| 2026-05-08 19:55 | 31.44147 | -93.35863 | 33336 ft | 398 kts | 230° |
| 2026-05-08 19:55 | 31.42253 | -93.38304 | 32842 ft | 408 kts | 230° |
| 2026-05-08 19:56 | 31.40325 | -93.40787 | 32415 ft | 413 kts | 230° |
| 2026-05-08 19:56 | 31.38413 | -93.43247 | 31991 ft | 413 kts | 231° |
| 2026-05-08 19:56 | 31.36483 | -93.45730 | 31553 ft | 411 kts | 231° |
| 2026-05-08 19:56 | 31.34555 | -93.48210 | 31151 ft | 410 kts | 231° |
| 2026-05-08 19:57 | 31.32640 | -93.50670 | 30751 ft | 409 kts | 231° |
| 2026-05-08 19:57 | 31.30724 | -93.53130 | 30356 ft | 408 kts | 231° |
| 2026-05-08 19:57 | 31.28810 | -93.55584 | 29991 ft | 408 kts | 230° |
| 2026-05-08 19:57 | 31.26895 | -93.58036 | 29584 ft | 408 kts | 230° |
| 2026-05-08 19:58 | 31.24985 | -93.60484 | 29177 ft | 408 kts | 230° |
| 2026-05-08 19:58 | 31.23094 | -93.62906 | 28775 ft | 408 kts | 230° |
| 2026-05-08 19:58 | 31.21194 | -93.65338 | 28381 ft | 400 kts | 230° |
| 2026-05-08 19:58 | 31.19334 | -93.67711 | 27998 ft | 391 kts | 230° |
| 2026-05-08 19:59 | 31.17513 | -93.70030 | 27622 ft | 384 kts | 230° |
| 2026-05-08 19:59 | 31.15720 | -93.72307 | 27267 ft | 377 kts | 230° |
| 2026-05-08 19:59 | 31.13958 | -93.74538 | 26911 ft | 372 kts | 230° |
| 2026-05-08 19:59 | 31.12211 | -93.76744 | 26565 ft | 366 kts | 230° |
| 2026-05-08 20:00 | 31.10490 | -93.78916 | 26260 ft | 364 kts | 231° |
| 2026-05-08 20:00 | 31.08770 | -93.81082 | 25968 ft | 363 kts | 230° |
| 2026-05-08 20:00 | 31.07059 | -93.83238 | 25681 ft | 361 kts | 230° |
| 2026-05-08 20:00 | 31.05373 | -93.85361 | 25410 ft | 360 kts | 230° |
| 2026-05-08 20:01 | 31.03660 | -93.87517 | 25128 ft | 363 kts | 230° |
| 2026-05-08 20:01 | 31.01939 | -93.89684 | 24845 ft | 366 kts | 230° |
| 2026-05-08 20:01 | 31.00193 | -93.91885 | 24587 ft | 373 kts | 230° |
| 2026-05-08 20:01 | 30.98419 | -93.94128 | 24319 ft | 379 kts | 230° |
| 2026-05-08 20:02 | 30.96626 | -93.96395 | 24169 ft | 381 kts | 230° |
| 2026-05-08 20:02 | 30.94841 | -93.98651 | 24088 ft | 373 kts | 230° |
| 2026-05-08 20:02 | 30.93104 | -94.00836 | 24056 ft | 362 kts | 230° |
| 2026-05-08 20:02 | 30.91432 | -94.02930 | 24036 ft | 347 kts | 230° |
| 2026-05-08 20:03 | 30.89794 | -94.04977 | 23802 ft | 344 kts | 230° |
| 2026-05-08 20:03 | 30.88196 | -94.06967 | 23548 ft | 336 kts | 230° |
| 2026-05-08 20:03 | 30.86607 | -94.08944 | 23252 ft | 334 kts | 230° |
| 2026-05-08 20:03 | 30.85002 | -94.10941 | 22962 ft | 340 kts | 230° |
| 2026-05-08 20:04 | 30.83374 | -94.12972 | 22680 ft | 345 kts | 230° |
| 2026-05-08 20:04 | 30.81731 | -94.15023 | 22401 ft | 348 kts | 230° |
| 2026-05-08 20:04 | 30.80072 | -94.17097 | 22121 ft | 351 kts | 230° |
| 2026-05-08 20:04 | 30.78402 | -94.19185 | 21846 ft | 354 kts | 230° |
| 2026-05-08 20:05 | 30.76718 | -94.21291 | 21568 ft | 356 kts | 230° |
| 2026-05-08 20:05 | 30.75054 | -94.23370 | 21306 ft | 347 kts | 230° |
| 2026-05-08 20:05 | 30.73426 | -94.25398 | 21034 ft | 340 kts | 230° |
| 2026-05-08 20:05 | 30.71809 | -94.27410 | 20760 ft | 340 kts | 230° |
| 2026-05-08 20:06 | 30.70196 | -94.29416 | 20497 ft | 339 kts | 230° |
| 2026-05-08 20:06 | 30.68581 | -94.31424 | 20231 ft | 339 kts | 230° |
| 2026-05-08 20:06 | 30.66987 | -94.33409 | 19974 ft | 341 kts | 230° |
| 2026-05-08 20:06 | 30.65368 | -94.35423 | 19719 ft | 342 kts | 230° |
| 2026-05-08 20:07 | 30.63745 | -94.37443 | 19464 ft | 343 kts | 230° |
| 2026-05-08 20:07 | 30.62119 | -94.39467 | 19210 ft | 343 kts | 230° |
| 2026-05-08 20:07 | 30.60486 | -94.41500 | 18960 ft | 344 kts | 230° |
| 2026-05-08 20:07 | 30.58851 | -94.43533 | 18711 ft | 345 kts | 230° |
| 2026-05-08 20:08 | 30.57212 | -94.45575 | 18466 ft | 346 kts | 230° |
| 2026-05-08 20:08 | 30.55572 | -94.47616 | 18213 ft | 344 kts | 229° |
| 2026-05-08 20:08 | 30.53938 | -94.49647 | 17890 ft | 344 kts | 229° |
| 2026-05-08 20:08 | 30.52314 | -94.51668 | 17524 ft | 339 kts | 229° |
| 2026-05-08 20:09 | 30.50712 | -94.53657 | 17175 ft | 335 kts | 229° |
| 2026-05-08 20:09 | 30.49128 | -94.55618 | 16821 ft | 332 kts | 229° |
| 2026-05-08 20:09 | 30.47559 | -94.57560 | 16464 ft | 328 kts | 229° |
| 2026-05-08 20:09 | 30.46005 | -94.59484 | 16118 ft | 325 kts | 230° |
| 2026-05-08 20:10 | 30.44801 | -94.61651 | 15777 ft | 319 kts | 251° |
| 2026-05-08 20:10 | 30.44508 | -94.64192 | 15456 ft | 323 kts | 272° |
| 2026-05-08 20:10 | 30.44543 | -94.66756 | 15125 ft | 323 kts | 260° |
| 2026-05-08 20:10 | 30.43698 | -94.69151 | 14804 ft | 324 kts | 236° |
| 2026-05-08 20:11 | 30.42202 | -94.71078 | 14461 ft | 319 kts | 227° |
| 2026-05-08 20:11 | 30.40590 | -94.72831 | 14132 ft | 315 kts | 225° |
| 2026-05-08 20:11 | 30.38982 | -94.74490 | 13786 ft | 305 kts | 224° |
| 2026-05-08 20:11 | 30.37401 | -94.76076 | 13374 ft | 298 kts | 224° |
| 2026-05-08 20:12 | 30.35842 | -94.77650 | 12963 ft | 297 kts | 224° |
| 2026-05-08 20:12 | 30.34815 | -94.78694 | 12685 ft | 295 kts | 224° |
| 2026-05-08 20:12 | 30.33286 | -94.80255 | 12289 ft | 292 kts | 224° |
| 2026-05-08 20:12 | 30.31777 | -94.81798 | 11877 ft | 287 kts | 224° |
| 2026-05-08 20:13 | 30.29804 | -94.83824 | 11260 ft | 284 kts | 224° |
| 2026-05-08 20:13 | 30.28382 | -94.85398 | 10800 ft | 282 kts | 227° |
| 2026-05-08 20:13 | 30.27465 | -94.86497 | 10526 ft | 279 kts | 229° |
| 2026-05-08 20:13 | 30.26159 | -94.88136 | 10129 ft | 274 kts | 230° |
| 2026-05-08 20:14 | 30.24907 | -94.89745 | 9732 ft | 272 kts | 230° |
| 2026-05-08 20:14 | 30.23670 | -94.91388 | 9311 ft | 270 kts | 231° |
| 2026-05-08 20:14 | 30.22464 | -94.93028 | 8904 ft | 265 kts | 231° |
| 2026-05-08 20:14 | 30.21302 | -94.94639 | 8492 ft | 261 kts | 232° |
| 2026-05-08 20:15 | 30.20176 | -94.96242 | 8226 ft | 251 kts | 232° |
| 2026-05-08 20:15 | 30.19093 | -94.97804 | 8093 ft | 248 kts | 232° |
| 2026-05-08 20:15 | 30.18007 | -94.99380 | 8040 ft | 253 kts | 232° |
| 2026-05-08 20:15 | 30.16922 | -95.00994 | 8018 ft | 255 kts | 233° |
| 2026-05-08 20:16 | 30.15836 | -95.02632 | 8014 ft | 257 kts | 233° |
| 2026-05-08 20:16 | 30.14766 | -95.04284 | 8008 ft | 257 kts | 234° |
| 2026-05-08 20:16 | 30.13734 | -95.05981 | 8051 ft | 260 kts | 238° |
| 2026-05-08 20:16 | 30.12946 | -95.07838 | 8127 ft | 261 kts | 252° |
| 2026-05-08 20:17 | 30.12497 | -95.09839 | 8305 ft | 253 kts | 256° |
| 2026-05-08 20:17 | 30.12103 | -95.11792 | 8140 ft | 248 kts | 256° |
| 2026-05-08 20:17 | 30.11761 | -95.13745 | 7802 ft | 249 kts | 258° |
| 2026-05-08 20:17 | 30.11457 | -95.15748 | 7486 ft | 257 kts | 259° |
| 2026-05-08 20:18 | 30.11165 | -95.17803 | 7233 ft | 260 kts | 259° |
| 2026-05-08 20:18 | 30.10885 | -95.19844 | 7107 ft | 254 kts | 260° |
| 2026-05-08 20:18 | 30.10611 | -95.21841 | 7040 ft | 250 kts | 259° |
| 2026-05-08 20:18 | 30.10346 | -95.23827 | 7032 ft | 251 kts | 260° |
| 2026-05-08 20:19 | 30.10089 | -95.25825 | 7023 ft | 254 kts | 261° |
| 2026-05-08 20:19 | 30.09901 | -95.27871 | 7056 ft | 258 kts | 263° |
| 2026-05-08 20:19 | 30.09759 | -95.29954 | 7072 ft | 260 kts | 265° |
| 2026-05-08 20:19 | 30.09707 | -95.31997 | 6905 ft | 256 kts | 267° |
| 2026-05-08 20:20 | 30.09686 | -95.34035 | 6726 ft | 250 kts | 267° |
| 2026-05-08 20:20 | 30.09676 | -95.36021 | 6556 ft | 244 kts | 268° |
| 2026-05-08 20:20 | 30.09676 | -95.37905 | 6429 ft | 227 kts | 268° |
| 2026-05-08 20:20 | 30.09691 | -95.39703 | 6285 ft | 222 kts | 268° |
| 2026-05-08 20:21 | 30.09717 | -95.41471 | 6159 ft | 218 kts | 269° |
| 2026-05-08 20:21 | 30.09742 | -95.43206 | 6097 ft | 217 kts | 269° |
| 2026-05-08 20:21 | 30.09767 | -95.44950 | 6077 ft | 217 kts | 269° |
| 2026-05-08 20:21 | 30.09800 | -95.46686 | 6064 ft | 217 kts | 269° |
| 2026-05-08 20:22 | 30.09831 | -95.48434 | 6054 ft | 219 kts | 270° |
| 2026-05-08 20:22 | 30.09854 | -95.50177 | 6085 ft | 216 kts | 269° |
| 2026-05-08 20:22 | 30.09883 | -95.51888 | 5834 ft | 215 kts | 269° |
| 2026-05-08 20:22 | 30.09909 | -95.53627 | 5465 ft | 222 kts | 269° |
| 2026-05-08 20:23 | 30.09931 | -95.55337 | 5146 ft | 204 kts | 269° |
| 2026-05-08 20:23 | 30.09951 | -95.56924 | 4770 ft | 193 kts | 269° |
| 2026-05-08 20:23 | 30.09966 | -95.58440 | 4339 ft | 186 kts | 269° |
| 2026-05-08 20:23 | 30.09974 | -95.59924 | 3879 ft | 185 kts | 269° |
| 2026-05-08 20:24 | 30.09990 | -95.61404 | 3495 ft | 185 kts | 269° |
| 2026-05-08 20:24 | 30.09992 | -95.62876 | 3245 ft | 178 kts | 264° |
| 2026-05-08 20:24 | 30.09473 | -95.64089 | 3128 ft | 169 kts | 221° |
| 2026-05-08 20:24 | 30.08361 | -95.64530 | 3087 ft | 177 kts | 184° |
| 2026-05-08 20:25 | 30.07131 | -95.64634 | 3052 ft | 175 kts | 184° |
| 2026-05-08 20:25 | 30.05938 | -95.64706 | 3014 ft | 172 kts | 183° |
| 2026-05-08 20:25 | 30.04719 | -95.64754 | 3009 ft | 178 kts | 182° |
| 2026-05-08 20:25 | 30.03491 | -95.64751 | 3037 ft | 176 kts | 177° |
| 2026-05-08 20:26 | 30.02290 | -95.64527 | 3051 ft | 174 kts | 167° |
| 2026-05-08 20:26 | 30.01169 | -95.64004 | 3106 ft | 179 kts | 143° |
| 2026-05-08 20:26 | 30.00530 | -95.62736 | 3118 ft | 192 kts | 104° |
| 2026-05-08 20:26 | 30.00525 | -95.61176 | 3137 ft | 197 kts | 90° |
| 2026-05-08 20:27 | 30.00604 | -95.59602 | 3146 ft | 198 kts | 86° |
| 2026-05-08 20:27 | 30.00725 | -95.58013 | 3141 ft | 198 kts | 86° |
| 2026-05-08 20:27 | 30.00775 | -95.56433 | 3105 ft | 196 kts | 92° |
| 2026-05-08 20:27 | 30.00753 | -95.54874 | 3096 ft | 193 kts | 94° |
| 2026-05-08 20:28 | 30.00722 | -95.53342 | 3059 ft | 189 kts | 93° |
| 2026-05-08 20:28 | 30.00691 | -95.51844 | 2840 ft | 190 kts | 92° |
| 2026-05-08 20:28 | 30.00686 | -95.50345 | 2565 ft | 180 kts | 91° |
| 2026-05-08 20:28 | 30.00697 | -95.48951 | 2307 ft | 168 kts | 92° |
| 2026-05-08 20:29 | 30.00697 | -95.47661 | 2078 ft | 154 kts | 91° |
| 2026-05-08 20:29 | 30.00703 | -95.46463 | 1909 ft | 146 kts | 91° |
| 2026-05-08 20:29 | 30.00708 | -95.45292 | 1733 ft | 146 kts | 92° |
| 2026-05-08 20:29 | 30.00704 | -95.44138 | 1517 ft | 139 kts | 92° |
| 2026-05-08 20:30 | 30.00700 | -95.43059 | 1289 ft | 132 kts | 90° |
| 2026-05-08 20:30 | 30.00700 | -95.42003 | 1112 ft | 132 kts | 90° |
| 2026-05-08 20:30 | 30.00708 | -95.40936 | 958 ft | 133 kts | 90° |
| 2026-05-08 20:30 | 30.00726 | -95.39911 | 796 ft | 124 kts | 88° |
| 2026-05-08 20:31 | 30.00727 | -95.38911 | 629 ft | 127 kts | 90° |
| 2026-05-08 20:31 | 30.00733 | -95.37860 | 494 ft | 135 kts | 94° |
| 2026-05-08 20:31 | 30.00725 | -95.36792 | 318 ft | 125 kts | 92° |
| 2026-05-08 20:31 | 30.00719 | -95.35795 | 130 ft | 123 kts | 92° |
| 2026-05-08 20:32 | 30.00716 | -95.34973 | 105 ft | 78 kts | 90° |
| 2026-05-08 20:32 | 30.00716 | -95.34482 | 105 ft | 52 kts | 90° |
| 2026-05-08 20:32 | 30.00710 | -95.34133 | 105 ft | 35 kts | 98° |
| 2026-05-08 20:32 | 30.00639 | -95.33907 | 105 ft | 26 kts | 119° |
| 2026-05-08 20:33 | 30.00610 | -95.33849 | 105 ft | 0 kts | 120° |
| 2026-05-08 20:35 | 30.00599 | -95.33827 | 105 ft | 6 kts | 120° |
| 2026-05-08 20:35 | 30.00570 | -95.33768 | 105 ft | 12 kts | 116° |
| 2026-05-08 20:35 | 30.00554 | -95.33661 | 105 ft | 15 kts | 92° |
| 2026-05-08 20:36 | 30.00553 | -95.33529 | 105 ft | 18 kts | 89° |
| 2026-05-08 20:36 | 30.00555 | -95.33376 | 105 ft | 20 kts | 89° |
| 2026-05-08 20:36 | 30.00535 | -95.33218 | 104 ft | 20 kts | 115° |
| 2026-05-08 20:36 | 30.00467 | -95.33065 | 105 ft | 22 kts | 120° |
| 2026-05-08 20:37 | 30.00368 | -95.32922 | 105 ft | 23 kts | 130° |
| 2026-05-08 20:37 | 30.00270 | -95.32787 | 105 ft | 22 kts | 130° |
| 2026-05-08 20:37 | 30.00174 | -95.32656 | 104 ft | 21 kts | 130° |
| 2026-05-08 20:37 | 30.00069 | -95.32548 | 104 ft | 20 kts | 165° |
| 2026-05-08 20:38 | 29.99933 | -95.32540 | 105 ft | 19 kts | 179° |
| 2026-05-08 20:38 | 29.99801 | -95.32539 | 105 ft | 19 kts | 180° |
| 2026-05-08 20:38 | 29.99672 | -95.32539 | 105 ft | 18 kts | 180° |
| 2026-05-08 20:38 | 29.99548 | -95.32539 | 105 ft | 17 kts | 180° |
| 2026-05-08 20:39 | 29.99427 | -95.32539 | 104 ft | 18 kts | 180° |
| 2026-05-08 20:39 | 29.99304 | -95.32539 | 104 ft | 17 kts | 180° |
| 2026-05-08 20:39 | 29.99204 | -95.32539 | 105 ft | 12 kts | 180° |
| 2026-05-08 20:39 | 29.99121 | -95.32544 | 105 ft | 12 kts | 201° |
| 2026-05-08 20:40 | 29.99091 | -95.32618 | 105 ft | 11 kts | 264° |
| 2026-05-08 20:40 | 29.99090 | -95.32704 | 105 ft | 11 kts | 270° |
| 2026-05-08 20:40 | 29.99091 | -95.32799 | 105 ft | 13 kts | 270° |
| 2026-05-08 20:40 | 29.99092 | -95.32902 | 105 ft | 14 kts | 270° |
| 2026-05-08 20:41 | 29.99090 | -95.32997 | 105 ft | 11 kts | 252° |
| 2026-05-08 20:41 | 29.99022 | -95.33026 | 105 ft | 12 kts | 179° |
| 2026-05-08 20:41 | 29.98933 | -95.33026 | 105 ft | 14 kts | 181° |
| 2026-05-08 20:41 | 29.98830 | -95.33026 | 105 ft | 15 kts | 179° |
| 2026-05-08 20:42 | 29.98718 | -95.33026 | 105 ft | 17 kts | 181° |
| 2026-05-08 20:42 | 29.98593 | -95.33027 | 105 ft | 19 kts | 180° |
| 2026-05-08 20:42 | 29.98457 | -95.33027 | 105 ft | 20 kts | 179° |
| 2026-05-08 20:42 | 29.98333 | -95.33027 | 105 ft | 12 kts | 192° |
| 2026-05-08 20:43 | 29.98302 | -95.33111 | 105 ft | 13 kts | 267° |
| 2026-05-08 20:43 | 29.98301 | -95.33226 | 105 ft | 15 kts | 269° |
| 2026-05-08 20:43 | 29.98300 | -95.33359 | 105 ft | 18 kts | 270° |
| 2026-05-08 20:43 | 29.98300 | -95.33509 | 105 ft | 20 kts | 270° |
| 2026-05-08 20:44 | 29.98312 | -95.33675 | 104 ft | 22 kts | 276° |
| 2026-05-08 20:44 | 29.98317 | -95.33853 | 105 ft | 23 kts | 270° |
| 2026-05-08 20:44 | 29.98341 | -95.34025 | 105 ft | 21 kts | 297° |
| 2026-05-08 20:44 | 29.98376 | -95.34177 | 106 ft | 19 kts | 270° |
| 2026-05-08 20:45 | 29.98377 | -95.34333 | 106 ft | 19 kts | 270° |
| 2026-05-08 20:45 | 29.98377 | -95.34435 | 105 ft | 19 kts | 270° |
| 2026-05-08 20:45 | 29.98378 | -95.34628 | 105 ft | 17 kts | 271° |
| 2026-05-08 20:45 | 29.98381 | -95.34750 | 105 ft | 13 kts | 284° |
| 2026-05-08 20:46 | 29.98449 | -95.34781 | 105 ft | 10 kts | 359° |
| 2026-05-08 20:46 | 29.98504 | -95.34771 | 105 ft | 6 kts | 37° |
| 2026-05-08 20:46 | 29.98527 | -95.34746 | 105 ft | 0 kts | 43° |
| 2026-05-08 20:46 | 29.98528 | -95.34745 | 105 ft | 0 kts | 44° |
| 2026-05-08 20:47 | 29.98531 | -95.34742 | 105 ft | 1 kts | 44° |
| 2026-05-08 20:47 | 29.98533 | -95.34740 | 105 ft | 0 kts | 44° |